• Join FlightAware (Why Join?)
  • Login
  • US Flag 
04:44PM EDT


 

Airport Tracker/Info


-or-


 

Live Flight TrackerFlight Track Log ✈ SKW5535 ✈ 23-Aug-2013 ✈ KMSO - KDEN

Flight Track Log - Related Links

Times and Time Zones

All times are in EDT time to prevent confusion due to time zone crossing. See the SKW5535 flight status page for this flight to view local times or setup timezone preferences in your user account.

Time Position Orientation Groundspeed Altitude Reporting Facility
EDT Latitude Longitude Course Direction KTS MPH feet Rate Location/Type
03:26PM 46.9014 -114.0689 139° Southeast 165 190 4,100  Level Salt Lake Center
03:27PM 46.8442 -114.0708 181° South 216 249 5,800 1,920 Climbing Salt Lake Center
03:28PM 46.7706 -114.0536 171° South 248 285 8,100 1,860 Climbing Salt Lake Center
03:29PM 46.6899 -113.7318 180° South  Level Estimated
03:29PM 46.7175 -113.9731 134° Southeast 277 319 9,700  Level Salt Lake Center
03:30PM 46.6142 -113.6129 126° Southeast  Level Estimated
03:30PM 46.6553 -113.8661 130° Southeast 325 374 10,800  Level Salt Lake Center
03:31PM 46.5383 -113.4943 139° Southeast  Level Estimated
03:31PM 46.5917 -113.7589 131° Southeast 350 403 12,400  Level Salt Lake Center
03:32PM 46.5269 -113.6506 131° Southeast 354 407 13,900 1,440 Climbing Salt Lake Center
03:33PM 46.4564 -113.5311 131° Southeast 362 417 15,400 1,500 Climbing Salt Lake Center
03:34PM 46.3872 -113.4158 131° Southeast 377 434 17,000 1,440 Climbing Salt Lake Center
03:35PM 46.3125 -113.2933 131° Southeast 378 435 18,400 1,200 Climbing Salt Lake Center
03:36PM 46.2486 -113.1856 131° Southeast 385 443 19,500 1,140 Climbing Salt Lake Center
03:37PM 46.1681 -113.0558 132° Southeast 388 447 20,800 840 Climbing Salt Lake Center
03:39PM 46.0958 -112.9394 132° Southeast 395 455 21,300 660 Climbing Salt Lake Center
03:40PM 46.0128 -112.8025 131° Southeast 411 473 22,200 840 Climbing Salt Lake Center
03:41PM 45.9386 -112.6839 132° Southeast 416 479 23,100 960 Climbing Salt Lake Center
03:42PM 45.8525 -112.5439 131° Southeast 418 481 24,300 1,080 Climbing Salt Lake Center
03:43PM 45.7814 -112.4283 131° Southeast 408 470 25,400 900 Climbing Salt Lake Center
03:44PM 45.6983 -112.2956 132° Southeast 402 463 26,200 660 Climbing Salt Lake Center
03:45PM 45.6272 -112.1811 132° Southeast 402 463 26,800 660 Climbing Salt Lake Center
03:46PM 45.5417 -112.0542 134° Southeast 399 459 27,600 660 Climbing Salt Lake Center
03:47PM 45.4681 -111.9483 135° Southeast 394 453 28,200 480 Climbing Salt Lake Center
03:48PM 45.3969 -111.8369 132° Southeast 396 456 28,700 480 Climbing Salt Lake Center
03:49PM 45.3128 -111.7028 132° Southeast 405 466 29,200 480 Climbing Salt Lake Center
03:50PM 45.2397 -111.5894 132° Southeast 406 467 29,700 480 Climbing Salt Lake Center
03:51PM 45.1539 -111.4558 132° Southeast 408 470 30,300 480 Climbing Salt Lake Center
03:52PM 45.0806 -111.3414 132° Southeast 409 471 30,800 480 Climbing Salt Lake Center
03:53PM 44.9925 -111.2081 133° Southeast 412 474 31,400 480 Climbing Salt Lake Center
03:54PM 44.9172 -111.0933 133° Southeast 412 474 31,800 420 Climbing Salt Lake Center
03:55PM 44.8419 -110.9767 132° Southeast 417 480 32,300 480 Climbing Salt Lake Center
03:56PM 44.7544 -110.8439 133° Southeast 414 476 32,900 300 Climbing Salt Lake Center
03:57PM 44.6797 -110.7303 133° Southeast 412 474 33,000  Climbing Salt Lake Center
03:58PM 44.5903 -110.5956 133° Southeast 417 480 33,000  Level Salt Lake Center
03:59PM 44.5125 -110.4781 133° Southeast 427 491 33,000  Level Salt Lake Center
04:00PM 44.4197 -110.3392 133° Southeast 435 501 33,000  Level Salt Lake Center
04:01PM 44.3392 -110.2194 133° Southeast 439 505 33,000  Level Salt Lake Center
04:02PM 44.2436 -110.0808 134° Southeast 443 510 33,000  Level Salt Lake Center
04:03PM 44.1631 -109.9619 133° Southeast 441 507 33,000  Level Salt Lake Center
04:04PM 44.0839 -109.8436 133° Southeast 437 503 33,000  Level Salt Lake Center
04:05PM 43.9897 -109.7061 134° Southeast 439 505 33,000  Level Salt Lake Center
04:06PM 43.9094 -109.5897 134° Southeast 437 503 33,000  Level Salt Lake Center
04:07PM 43.9021 -109.5808 134° Southeast  Level FlightAware Approximate
04:07PM 43.8222 -109.4664 134° Southeast 438 504 33,000  Level Salt Lake Center
04:08PM 43.7386 -109.3489 135° Southeast 432 497 33,000  Level Salt Lake Center
04:10PM 43.6369 -109.2028 134° Southeast 439 505 33,000  Level Salt Lake Center
04:11PM 43.5531 -109.0808 133° Southeast 441 507 33,000  Level Salt Lake Center
04:12PM 43.4686 -108.9608 134° Southeast 440 506 33,000  Level Salt Lake Center
04:13PM 43.3828 -108.8417 135° Southeast 440 506 33,000  Level Salt Lake Center
04:14PM 43.2981 -108.7208 134° Southeast 441 507 33,000  Level Salt Lake Center
04:15PM 43.2147 -108.6011 134° Southeast 437 503 33,000  Level Salt Lake Center
04:16PM 43.1119 -108.4592 135° Southeast 439 505 33,000  Level Salt Lake Center
04:17PM 43.0278 -108.3422 135° Southeast 435 501 33,000  Level Salt Lake Center
04:18PM 42.9444 -108.2269 135° Southeast 434 499 33,000  Level Salt Lake Center
04:19PM 42.8636 -108.1153 135° Southeast 431 496 33,000  Level Salt Lake Center
04:20PM 42.7678 -107.9839 135° Southeast 435 501 33,000  Level Salt Lake Center
04:21PM 42.6858 -107.8719 135° Southeast 435 501 33,000  Level Salt Lake Center
04:22PM 42.5911 -107.7419 135° Southeast 433 498 33,000  Level Salt Lake Center
04:23PM 42.5089 -107.6308 135° Southeast 434 499 33,000  Level Salt Lake Center
04:24PM 42.4125 -107.5011 135° Southeast 436 502 33,000  Level Salt Lake Center
04:25PM 42.3300 -107.3897 135° Southeast 436 502 33,000  Level Denver Center
04:26PM 42.2331 -107.2603 135° Southeast 438 504 33,000  Level Denver Center
04:27PM 42.1361 -107.1331 136° Southeast 437 503 33,000  Level Denver Center
04:28PM 42.0350 -107.0575 151° Southeast 436 502 33,000  Level Denver Center
04:29PM 41.9172 -106.9769 153° Southeast 428 493 33,000  Level Denver Center
04:30PM 41.8175 -106.9081 153° Southeast 423 487 33,000  Level Denver Center
04:31PM 41.6997 -106.8289 153° Southeast 423 487 33,000  Level Denver Center
04:32PM 41.6003 -106.7608 153° Southeast 420 483 33,000  Level Denver Center
04:33PM 41.4892 -106.7506 176° South 427 491 33,000  Level Denver Center
04:34PM 41.3636 -106.7611 184° South 411 473 33,000  Level Denver Center
04:35PM 41.2567 -106.7708 184° South 405 466 33,000 -60 Level Denver Center
04:36PM 41.1289 -106.7828 184° South 410 472 32,900 -960 Descending Denver Center
04:38PM 41.0258 -106.7414 163° South 404 465 31,100 -1,740 Descending Denver Center
04:39PM 40.9425 -106.6269 134° Southeast 388 447 29,400 -1,860 Descending Denver Center
04:40PM 40.8864 -106.5108 123° Southeast 389 448 27,300 -1,260 Descending Denver Center
04:41PM 40.8231 -106.3861 124° Southeast 369 425 26,800 -780 Descending Denver Center
04:42PM 40.7689 -106.2750 123° Southeast 374 430 25,800 -1,020 Descending Denver Center
04:43PM 40.7136 -106.1528 121° Southeast 378 435 24,800 -1,020 Descending Denver Center
04:44PM 40.6786 -106.0194 109° East 385 443 23,800 -1,080 Descending Denver Center
04:45PM 40.6086 -105.9244 134° Southeast 367 422 22,600 -1,200 Descending Denver Center
04:46PM 40.5389 -105.8022 127° Southeast 354 407 21,300 -1,200 Descending Denver Center
04:47PM 40.4839 -105.6944 124° Southeast 355 409 20,200 -1,080 Descending Denver Center
04:48PM 40.4267 -105.5806 123° Southeast 370 426 19,100 -1,140 Descending Denver Center
04:49PM 40.3653 -105.4583 123° Southeast 374 430 17,900 -1,320 Descending Denver Center
04:50PM 40.3419 -105.3397 104° East 333 383 16,400 -1,560 Descending Denver Center
04:51PM 40.3247 -105.2150 100° East 324 373 14,700 -1,620 Descending Denver Center
04:52PM 40.3092 -105.1000 100° East 323 372 13,100 -1,200 Descending Denver Center
04:53PM 40.2947 -104.9853 99° East 300 345 12,300 -1,020 Descending Denver Center
04:54PM 40.2569 -104.9089 123° Southeast 253 291 11,100 -1,200 Descending Denver Center
04:55PM 40.2094 -104.8342 130° Southeast 248 285 9,900 -840 Descending Denver Center
04:56PM 40.1478 -104.7961 155° Southeast 246 283 9,300 -1,020 Descending Denver Center
04:57PM 40.0747 -104.7478 153° Southeast 240 276 7,700 -1,080 Descending Denver Center
04:58PM 40.0133 -104.7081 154° Southeast 229 264 7,100 -600 Descending Denver Center
04:59PM 39.9606 -104.6953 169° South 195 224 6,500 -720 Descending Denver Center
05:00PM 39.9156 -104.6961 181° South 166 191 5,700 -600 Descending Denver Center
05:02PM 39.8756 -104.6958 180° South 149 171 5,300 -420 Descending Denver Center